Victoria International Airport
CYYJ : now visible

Airfield :











YOU CAN JOIN US ON...

 
LOGIN :

Register | Disclaimer

   EN    FR    IT 

 









Legend :    VFR   Marginal VFR   IFR   Intensive IFR   Very Intensive IFR
Visi :
Ceiling :
>= 8 km
>= 3000ft
5 to 8 km
1000 to 3000 ft
1500m to 5 km
500 to 1000 ft
800 to 1500m
200 to 500 ft
< 800m
< 200 ft
Symbols :   Thunderstorms  Fog  Heavy snow  Heavy precipitations  Wind > 20 kt






- Airport Elevation : 63 ft
- IATA code : YYJ


CYYJ - Victoria International

CURRENT METAR :
  • 270200Z 14003KT 100V170 30SM FEW035 BKN074 BKN120 09/07 A2989 RMK SC1AC5AC2 SC TR SLP125

EXPIRED METARs :
  • 270100Z 10002KT 30SM FEW035 FEW070 BKN110 BKN150 09/06 A2991 RMK SC1AC2AC4AC1 SC TR SLP129
  • 270000Z 15003KT 30SM FEW030 SCT055 BKN072 10/06 A2992 RMK SC1SC2AC4 SLP132

TAF TAF CYYJ
Valid from the 27 at 00:00 until the 28 at 00:00 UTC


262341Z 2700/2724 12008KT P6SM FEW020 FEW040 BKN060
TEMPO 2700/2701 P6SM -SHRA SCT020 BKN040
FM270100 14010G20KT P6SM -SHRA SCT012 OVC025
TEMPO 2701/2705 3SM -SHRA BR BKN012 OVC020
FM270500 21010G20KT P6SM BKN030
TEMPO 2705/2716 P6SM -SHRA BKN020
FM271600 14010KT P6SM SCT020 BKN040
TEMPO 2716/2724 BKN020 BKN040 RMK NXT FCST BY 270600Z



MET'MAP, your aeronautical weather chart ! - Copyright ORBIFLY December 2007 - Disclaimer

ORBIFLY MET'MAP TEAM :

Programming & Development : Alexandra Zaïnal
Concept & original design : Baudouin d'Aumeries
Assistance for programming : Marc-Olivier Méhu
Technical & hardware support : Manuel Goepfert

Contact : metmap@orbifly.com




SOURCES & CREDITS :

   NOAA       Earth
Advisory